Time;durP1;ratioP1;P1;durP2;ratioP2;P2;SDS_P1;SDS_P2;PMS_P1;PMS_P2;Temp;Humidity;BMP_temperature;BMP_pressure;BME280_temperature;BME280_humidity;BME280_pressure;Samples;Min_cycle;Max_cycle;Signal;HPM_P1;HPM_P2
2024/02/20 00:01:42;;;;;;;0.50;0.50;;;;;;;2.00;100.00;100513.38;5067219;28;20466;-69
2024/02/20 00:04:08;;;;;;;0.50;0.50;;;;;;;1.85;100.00;100509.53;5067541;28;20024;-69
2024/02/20 00:06:35;;;;;;;0.50;0.50;;;;;;;1.80;100.00;100511.09;5049537;28;20028;-70
2024/02/20 00:09:01;;;;;;;0.40;0.40;;;;;;;1.87;100.00;100523.22;5049399;28;20025;-70
2024/02/20 00:11:26;;;;;;;0.50;0.50;;;;;;;1.78;100.00;100505.94;5067435;28;20021;-69
2024/02/20 00:13:52;;;;;;;0.50;0.50;;;;;;;1.85;100.00;100519.78;5067207;28;20112;-70
2024/02/20 00:16:19;;;;;;;0.50;0.50;;;;;;;1.86;100.00;100524.06;5049219;28;20029;-69
2024/02/20 00:18:45;;;;;;;0.50;0.50;;;;;;;1.90;100.00;100531.00;5049263;28;20017;-69
2024/02/20 00:21:10;;;;;;;0.50;0.50;;;;;;;1.93;100.00;100537.94;5067090;28;20031;-70
2024/02/20 00:23:36;;;;;;;0.43;0.43;;;;;;;1.91;100.00;100525.06;5067075;28;20047;-69
2024/02/20 00:26:03;;;;;;;0.50;0.50;;;;;;;1.88;100.00;100522.44;5067106;28;20080;-69
2024/02/20 00:28:28;;;;;;;0.50;0.50;;;;;;;1.83;100.00;100521.41;5067044;28;20038;-69
2024/02/20 00:30:53;;;;;;;0.50;0.50;;;;;;;1.80;100.00;100526.44;5066692;28;20021;-69
2024/02/20 00:33:19;;;;;;;0.50;0.50;;;;;;;1.82;100.00;100529.94;5066899;28;20040;-69
2024/02/20 00:35:44;;;;;;;0.50;0.50;;;;;;;1.72;100.00;100516.88;5049027;28;20089;-68
2024/02/20 00:38:10;;;;;;;0.47;0.47;;;;;;;1.78;100.00;100521.28;5049102;28;20043;-68
2024/02/20 00:40:35;;;;;;;0.50;0.50;;;;;;;1.79;100.00;100507.66;5066612;28;20041;-68
2024/02/20 00:43:00;;;;;;;0.50;0.50;;;;;;;1.85;100.00;100512.94;5066703;28;20071;-70
2024/02/20 00:45:27;;;;;;;0.50;0.50;;;;;;;1.87;100.00;100512.16;5066881;28;20051;-68
2024/02/20 00:47:53;;;;;;;0.50;0.50;;;;;;;1.92;100.00;100513.13;5065598;28;20021;-67
2024/02/20 00:50:18;;;;;;;0.50;0.50;;;;;;;1.83;100.00;100499.25;5066831;28;20524;-69
2024/02/20 00:52:43;;;;;;;0.52;0.52;;;;;;;1.91;100.00;100494.34;5066563;28;20021;-68
2024/02/20 00:55:09;;;;;;;0.47;0.47;;;;;;;1.97;100.00;100501.31;5066504;28;20076;-68
2024/02/20 00:57:34;;;;;;;0.50;0.50;;;;;;;1.98;100.00;100503.94;5066331;28;20083;-68
2024/02/20 01:00:00;;;;;;;0.50;0.50;;;;;;;1.88;100.00;100494.25;5066286;28;20037;-67
2024/02/20 01:02:25;;;;;;;0.50;0.50;;;;;;;1.90;100.00;100497.72;5066184;28;20048;-68
2024/02/20 01:04:51;;;;;;;1.35;1.35;;;;;;;1.88;100.00;100501.06;5066311;28;20017;-68
2024/02/20 01:07:16;;;;;;;0.50;0.50;;;;;;;1.78;100.00;100502.47;5048258;28;20028;-68
2024/02/20 01:09:41;;;;;;;0.50;0.50;;;;;;;1.84;100.00;100507.78;5066183;28;20021;-67
2024/02/20 01:12:07;;;;;;;0.50;0.50;;;;;;;1.86;100.00;100511.25;5066276;28;20052;-69
2024/02/20 01:14:33;;;;;;;0.50;0.50;;;;;;;1.79;100.00;100496.56;5066195;28;20025;-68
2024/02/20 01:16:58;;;;;;;0.50;0.50;;;;;;;1.79;100.00;100504.25;5066063;28;20021;-68
2024/02/20 01:19:23;;;;;;;0.47;0.47;;;;;;;1.75;100.00;100503.28;5065985;28;20086;-69
2024/02/20 01:21:49;;;;;;;0.50;0.50;;;;;;;1.67;100.00;100491.94;5047871;28;20052;-68
2024/02/20 01:24:14;;;;;;;0.50;0.50;;;;;;;1.65;100.00;100497.00;5065658;28;20370;-68
2024/02/20 01:26:43;;;;;;;0.50;0.50;;;;;;;1.60;100.00;100493.44;5065718;28;20024;-67
2024/02/20 01:29:09;;;;;;;0.50;0.50;;;;;;;1.63;100.00;100496.09;5065878;28;20032;-68
2024/02/20 01:31:34;;;;;;;0.50;0.50;;;;;;;1.57;100.00;100488.22;5047895;28;20021;-67
2024/02/20 01:34:00;;;;;;;0.50;0.50;;;;;;;1.55;100.00;100487.34;5065813;28;20027;-67
2024/02/20 01:36:25;;;;;;;0.40;0.40;;;;;;;1.53;100.00;100491.53;5065875;28;20020;-69
2024/02/20 01:38:50;;;;;;;0.50;0.50;;;;;;;1.46;100.00;100485.34;5065670;28;20127;-67
2024/02/20 01:41:18;;;;;;;0.50;0.50;;;;;;;1.51;100.00;100488.94;5047513;28;20021;-67
2024/02/20 01:43:45;;;;;;;0.50;0.50;;;;;;;1.46;100.00;100481.13;5065463;28;20029;-67
2024/02/20 01:46:12;;;;;;;0.40;0.40;;;;;;;1.50;100.00;100483.75;5065331;28;20032;-68
2024/02/20 01:48:38;;;;;;;0.50;0.50;;;;;;;1.41;100.00;100474.97;5047697;28;20025;-68
2024/02/20 01:51:03;;;;;;;0.50;0.50;;;;;;;1.42;100.00;100476.72;5047475;28;20055;-68
2024/02/20 01:53:30;;;;;;;0.50;0.50;;;;;;;1.43;100.00;100480.16;5065333;28;20036;-67
2024/02/20 01:55:57;;;;;;;0.40;0.40;;;;;;;1.39;100.00;100481.72;5065069;28;20025;-68
2024/02/20 01:58:23;;;;;;;0.50;0.50;;;;;;;1.41;100.00;100498.00;5047110;28;20052;-69
2024/02/20 02:00:49;;;;;;;0.50;0.50;;;;;;;1.44;100.00;100503.22;5064984;28;20047;-67
2024/02/20 02:03:15;;;;;;;0.43;0.43;;;;;;;1.52;100.00;100493.22;5047188;28;20021;-68
2024/02/20 02:05:40;;;;;;;0.50;0.50;;;;;;;1.56;100.00;100497.63;5047441;28;20031;-66
2024/02/20 02:08:07;;;;;;;0.50;0.50;;;;;;;1.61;100.00;100500.31;5064964;28;20024;-67
2024/02/20 02:10:32;;;;;;;0.95;0.95;;;;;;;1.56;100.00;100501.84;5047237;28;20174;-67
2024/02/20 02:12:58;;;;;;;0.50;0.50;;;;;;;1.59;100.00;100512.19;5065234;28;20024;-66
2024/02/20 02:15:23;;;;;;;0.50;0.50;;;;;;;1.59;100.00;100501.94;5065077;28;20414;-67
2024/02/20 02:17:48;;;;;;;0.50;0.50;;;;;;;1.56;100.00;100504.41;5046938;28;20036;-67
2024/02/20 02:20:14;;;;;;;0.50;0.50;;;;;;;1.70;100.00;100503.16;5065037;28;20032;-67
2024/02/20 02:22:39;;;;;;;1.15;1.15;;;;;;;1.70;100.00;100500.59;5065009;28;20024;-67
2024/02/20 02:25:07;;;;;;;0.40;0.40;;;;;;;1.76;100.00;100514.41;5064810;28;20033;-67
2024/02/20 02:27:33;;;;;;;0.40;0.40;;;;;;;1.80;100.00;100505.97;5064973;28;20021;-66
2024/02/20 02:29:58;;;;;;;0.50;0.50;;;;;;;1.83;100.00;100504.38;5064801;28;20017;-66
2024/02/20 02:32:26;;;;;;;0.50;0.50;;;;;;;1.92;100.00;100505.44;5064909;28;20389;-67
2024/02/20 02:34:52;;;;;;;0.40;0.40;;;;;;;1.95;100.00;100500.44;5046882;28;20036;-67
2024/02/20 02:37:17;;;;;;;0.40;0.40;;;;;;;1.92;100.00;100490.94;5064907;28;20020;-67
2024/02/20 02:39:42;;;;;;;0.50;0.50;;;;;;;1.88;100.00;100478.91;5064830;28;20040;-67
2024/02/20 02:42:08;;;;;;;0.50;0.50;;;;;;;2.05;100.00;100501.53;5064757;28;20036;-66
2024/02/20 02:44:33;;;;;;;0.40;0.40;;;;;;;2.00;100.00;100500.56;5064690;28;20017;-67
2024/02/20 02:46:59;;;;;;;0.40;0.40;;;;;;;2.02;100.00;100501.47;5064695;28;20036;-67
2024/02/20 02:49:24;;;;;;;0.50;0.50;;;;;;;2.04;100.00;100515.19;5064668;28;20024;-66
2024/02/20 02:51:50;;;;;;;0.50;0.50;;;;;;;1.98;100.00;100511.59;5064676;28;20499;-67
2024/02/20 02:54:15;;;;;;;0.50;0.50;;;;;;;2.01;100.00;100518.53;5064569;28;20021;-66
2024/02/20 02:56:41;;;;;;;0.40;0.40;;;;;;;2.05;100.00;100527.16;5064671;28;20024;-66
2024/02/20 02:59:08;;;;;;;0.95;0.95;;;;;;;2.02;100.00;100527.06;5046530;28;20081;-67
2024/02/20 03:01:34;;;;;;;0.50;0.50;;;;;;;1.95;100.00;100528.59;5064453;28;20055;-66
2024/02/20 03:04:00;;;;;;;0.50;0.50;;;;;;;2.02;100.00;100530.50;5064434;28;20085;-66
2024/02/20 03:06:25;;;;;;;0.50;0.50;;;;;;;2.04;100.00;100526.31;5064650;28;20051;-66
2024/02/20 03:08:51;;;;;;;0.47;0.47;;;;;;;2.10;100.00;100530.72;5064481;28;20031;-66
2024/02/20 03:11:17;;;;;;;0.50;0.50;;;;;;;2.11;100.00;100524.75;5066970;28;20024;-66
2024/02/20 03:13:43;;;;;;;0.50;0.50;;;;;;;2.11;100.00;100522.19;5068369;28;20059;-66
2024/02/20 03:16:10;;;;;;;0.50;0.50;;;;;;;2.07;100.00;100517.81;5068093;28;20469;-66
2024/02/20 03:18:39;;;;;;;0.47;0.47;;;;;;;2.11;100.00;100524.75;5068595;28;20025;-66
2024/02/20 03:21:06;;;;;;;0.60;0.60;;;;;;;2.08;100.00;100522.13;5067916;28;20047;-66
2024/02/20 03:23:32;;;;;;;0.50;0.50;;;;;;;2.01;100.00;100525.34;5068005;28;20089;-66
2024/02/20 03:25:58;;;;;;;0.50;0.50;;;;;;;1.90;100.00;100517.34;5050229;28;20032;-67
2024/02/20 03:28:24;;;;;;;0.40;0.40;;;;;;;1.77;100.00;100519.56;5067940;28;20032;-67
2024/02/20 03:30:51;;;;;;;0.77;0.77;;;;;;;1.72;100.00;100524.53;5067894;28;20024;-67
2024/02/20 03:33:17;;;;;;;0.50;0.50;;;;;;;1.65;100.00;100517.47;5068045;28;20021;-67
2024/02/20 03:35:42;;;;;;;0.50;0.50;;;;;;;1.62;100.00;100517.41;5067826;28;20021;-67
2024/02/20 03:38:09;;;;;;;0.50;0.50;;;;;;;1.64;100.00;100515.75;5049877;28;20021;-67
2024/02/20 03:40:34;;;;;;;0.40;0.40;;;;;;;1.63;100.00;100513.16;5049741;28;20024;-68
2024/02/20 03:43:02;;;;;;;0.47;0.47;;;;;;;1.57;100.00;100518.94;5049719;28;20025;-65
2024/02/20 03:45:27;;;;;;;0.50;0.50;;;;;;;1.54;100.00;100521.41;5067655;28;20053;-67
2024/02/20 03:47:54;;;;;;;0.50;0.50;;;;;;;1.46;100.00;100524.63;5067476;28;20052;-67
2024/02/20 03:50:20;;;;;;;0.50;0.50;;;;;;;1.39;100.00;100516.69;5067573;28;20021;-68
2024/02/20 03:52:45;;;;;;;0.50;0.50;;;;;;;1.39;100.00;100520.09;5067584;28;20055;-67
2024/02/20 03:55:11;;;;;;;2.15;2.05;;;;;;;1.39;100.00;100520.09;5049575;28;20036;-66
2024/02/20 03:57:36;;;;;;;0.57;0.57;;;;;;;1.44;100.00;100517.69;5067311;28;20504;-68
2024/02/20 04:00:03;;;;;;;0.50;0.50;;;;;;;1.53;100.00;100518.00;5067342;28;20039;-65
2024/02/20 04:02:28;;;;;;;0.50;0.50;;;;;;;1.52;100.00;100511.13;5067335;28;20025;-65
2024/02/20 04:04:54;;;;;;;0.50;0.50;;;;;;;1.57;100.00;100513.81;5067118;28;20027;-67
2024/02/20 04:07:19;;;;;;;0.50;0.50;;;;;;;1.58;100.00;100510.47;5067364;28;20123;-66
2024/02/20 04:09:45;;;;;;;0.55;0.55;;;;;;;1.60;100.00;100519.03;5067093;28;20048;-66
2024/02/20 04:12:10;;;;;;;0.50;0.50;;;;;;;1.55;100.00;100515.50;5067242;28;20032;-67
2024/02/20 04:14:36;;;;;;;0.50;0.50;;;;;;;1.51;100.00;100514.50;5049118;28;20025;-68
2024/02/20 04:17:01;;;;;;;0.50;0.50;;;;;;;1.44;100.00;100508.34;5066771;28;20408;-67
2024/02/20 04:19:26;;;;;;;0.40;0.40;;;;;;;1.42;100.00;100514.25;5067060;28;20111;-68
2024/02/20 04:21:52;;;;;;;0.50;0.50;;;;;;;1.39;100.00;100514.16;5066789;28;20021;-68
2024/02/20 04:24:17;;;;;;;0.52;0.52;;;;;;;1.32;100.00;100519.06;5066908;28;20048;-68
2024/02/20 04:26:42;;;;;;;0.57;0.57;;;;;;;1.34;100.00;100514.00;5066870;28;20021;-67
2024/02/20 04:29:08;;;;;;;0.40;0.40;;;;;;;1.31;100.00;100509.63;5066844;28;20029;-68
2024/02/20 04:31:33;;;;;;;0.70;0.70;;;;;;;1.39;100.00;100507.31;5066634;28;20040;-68
2024/02/20 04:33:58;;;;;;;0.50;0.50;;;;;;;1.45;100.00;100519.44;5066789;28;20025;-68
2024/02/20 04:36:24;;;;;;;0.40;0.40;;;;;;;1.55;100.00;100518.03;5048704;28;20024;-67
2024/02/20 04:38:56;;;;;;;0.50;0.50;;;;;;;1.58;100.00;100508.75;5066663;28;20025;-67
2024/02/20 04:41:25;;;;;;;0.50;0.50;;;;;;;1.53;100.00;100502.66;5048481;28;20059;-67
2024/02/20 04:43:51;;;;;;;0.50;0.50;;;;;;;1.57;100.00;100518.94;5066593;28;20166;-67
2024/02/20 04:46:16;;;;;;;0.50;0.50;;;;;;;1.51;100.00;100518.75;5066503;28;20142;-68
2024/02/20 04:48:42;;;;;;;0.45;0.45;;;;;;;1.46;100.00;100519.50;5066544;28;20045;-67
2024/02/20 04:51:07;;;;;;;0.50;0.50;;;;;;;1.48;100.00;100530.66;5048236;28;20052;-68
2024/02/20 04:53:32;;;;;;;0.50;0.50;;;;;;;1.46;100.00;100533.97;5066381;28;20025;-67
2024/02/20 04:55:58;;;;;;;0.40;0.40;;;;;;;1.43;100.00;100527.06;5066270;28;20031;-68
2024/02/20 04:58:23;;;;;;;1.05;0.88;;;;;;;1.44;100.00;100535.59;5066008;28;20072;-68
2024/02/20 05:00:48;;;;;;;0.50;0.50;;;;;;;1.43;100.00;100521.97;5066121;28;20022;-68
2024/02/20 05:03:14;;;;;;;0.60;0.60;;;;;;;1.45;100.00;100520.28;5066044;28;20437;-68
2024/02/20 05:05:40;;;;;;;0.40;0.40;;;;;;;1.50;100.00;100527.25;5048081;28;20048;-68
2024/02/20 05:08:06;;;;;;;0.50;0.50;;;;;;;1.46;100.00;100516.94;5066202;28;20021;-67
2024/02/20 05:10:31;;;;;;;0.50;0.50;;;;;;;1.55;100.00;100521.44;5048148;28;20031;-66
2024/02/20 05:12:56;;;;;;;0.50;0.50;;;;;;;1.47;100.00;100518.66;5066391;28;20020;-68
2024/02/20 05:15:22;;;;;;;0.40;0.40;;;;;;;1.52;100.00;100526.47;5048677;28;20028;-69
2024/02/20 05:17:47;;;;;;;0.50;0.50;;;;;;;1.50;100.00;100527.25;5067599;28;20409;-68
2024/02/20 05:20:12;;;;;;;0.40;0.40;;;;;;;1.53;100.00;100533.34;5066388;28;20028;-69
2024/02/20 05:22:38;;;;;;;0.50;0.50;;;;;;;1.50;100.00;100523.03;5065854;28;20106;-68
2024/02/20 05:25:06;;;;;;;0.40;0.40;;;;;;;1.51;100.00;100523.88;5065720;28;20390;-68
2024/02/20 05:27:31;;;;;;;0.50;0.50;;;;;;;1.49;100.00;100528.94;5065776;28;20031;-67
2024/02/20 05:29:57;;;;;;;0.40;0.40;;;;;;;1.50;100.00;100524.69;5066043;28;20466;-68
2024/02/20 05:32:22;;;;;;;0.50;0.50;;;;;;;1.44;100.00;100520.25;5065501;28;20025;-69
2024/02/20 05:34:47;;;;;;;0.50;0.50;;;;;;;1.47;100.00;100530.59;5048033;28;20040;-68
2024/02/20 05:37:13;;;;;;;0.50;0.50;;;;;;;1.50;100.00;100523.03;5048091;28;20029;-64
2024/02/20 05:39:38;;;;;;;0.50;0.50;;;;;;;1.50;100.00;100529.81;5066194;28;20093;-66
2024/02/20 05:42:04;;;;;;;0.50;0.50;;;;;;;1.51;100.00;100524.75;5065695;28;20156;-68
2024/02/20 05:44:29;;;;;;;0.77;0.75;;;;;;;1.51;100.00;100519.63;5048036;28;20021;-68
2024/02/20 05:46:54;;;;;;;0.50;0.50;;;;;;;1.48;100.00;100525.53;5065242;28;20088;-68
2024/02/20 05:49:20;;;;;;;0.50;0.50;;;;;;;1.53;100.00;100515.44;5065486;28;20489;-67
2024/02/20 05:51:47;;;;;;;0.50;0.50;;;;;;;1.60;100.00;100529.25;5065500;28;20024;-69
2024/02/20 05:54:14;;;;;;;0.50;0.50;;;;;;;1.61;100.00;100526.75;5065371;28;20028;-66
2024/02/20 05:56:41;;;;;;;1.88;1.77;;;;;;;1.60;100.00;100525.03;5065407;28;20035;-66
2024/02/20 05:59:06;;;;;;;0.50;0.50;;;;;;;1.61;100.00;100533.59;5064776;28;20075;-66
2024/02/20 06:01:31;;;;;;;0.50;0.50;;;;;;;1.59;100.00;100545.47;5064991;28;20093;-66
2024/02/20 06:04:00;;;;;;;0.45;0.45;;;;;;;1.68;100.00;100539.72;5046951;28;20051;-66
2024/02/20 06:06:25;;;;;;;0.60;0.60;;;;;;;1.47;100.00;100492.22;5065551;28;20024;-66
2024/02/20 06:08:51;;;;;;;0.50;0.50;;;;;;;1.80;100.00;100518.78;5065360;28;20025;-67
2024/02/20 06:11:18;;;;;;;0.50;0.50;;;;;;;1.80;100.00;100521.31;5047445;28;20104;-67
2024/02/20 06:13:44;;;;;;;0.50;0.50;;;;;;;1.76;100.00;100506.72;5065297;28;20044;-66
2024/02/20 06:16:10;;;;;;;0.50;0.50;;;;;;;1.78;100.00;100513.59;5047124;28;20025;-67
2024/02/20 06:18:35;;;;;;;0.50;0.50;;;;;;;1.80;100.00;100504.28;5065254;28;20021;-66
2024/02/20 06:21:01;;;;;;;0.50;0.50;;;;;;;1.84;100.00;100500.09;5064658;28;20050;-66
2024/02/20 06:23:27;;;;;;;1.88;1.13;;;;;;;1.82;100.00;100510.28;5064936;28;20036;-67
2024/02/20 06:25:55;;;;;;;0.50;0.50;;;;;;;1.77;100.00;100522.13;5064893;28;20084;-67
2024/02/20 06:28:20;;;;;;;0.47;0.47;;;;;;;1.75;100.00;100517.75;5047121;28;20031;-66
2024/02/20 06:30:50;;;;;;;5.40;5.07;;;;;;;1.87;100.00;100509.59;5047072;28;20025;-66
2024/02/20 06:33:15;;;;;;;0.50;0.50;;;;;;;2.00;100.00;100518.50;5064854;28;20161;-67
2024/02/20 06:35:41;;;;;;;0.50;0.50;;;;;;;2.00;100.00;100523.63;5064896;28;20592;-65
2024/02/20 06:38:07;;;;;;;0.50;0.50;;;;;;;2.02;100.00;100514.25;5046940;28;20025;-66
2024/02/20 06:40:33;;;;;;;0.50;0.50;;;;;;;2.14;100.00;100519.72;5046707;28;20388;-66
2024/02/20 06:42:58;;;;;;;0.50;0.50;;;;;;;2.22;100.00;100527.66;5065005;28;20040;-67
2024/02/20 06:45:23;;;;;;;0.50;0.50;;;;;;;2.29;100.00;100528.66;5065949;28;20457;-66
2024/02/20 06:47:49;;;;;;;0.50;0.50;;;;;;;2.32;100.00;100532.19;5069096;28;20021;-66
2024/02/20 06:50:14;;;;;;;0.47;0.47;;;;;;;2.40;100.00;100540.09;5069017;28;20396;-68
2024/02/20 06:52:40;;;;;;;0.50;0.50;;;;;;;2.40;100.00;100537.50;5069091;28;20020;-66
2024/02/20 06:55:07;;;;;;;0.50;0.50;;;;;;;2.49;100.00;100536.91;5068798;28;20064;-66
2024/02/20 06:57:33;;;;;;;0.40;0.40;;;;;;;2.52;100.00;100525.88;5068762;28;20485;-66
2024/02/20 06:59:58;;;;;;;0.45;0.45;;;;;;;2.52;100.00;100503.69;5050917;28;20025;-67
2024/02/20 07:02:24;;;;;;;0.50;0.50;;;;;;;2.58;100.00;100515.78;5068634;28;20358;-68
2024/02/20 07:04:49;;;;;;;0.40;0.40;;;;;;;2.61;100.00;100508.16;5050602;28;20051;-68
2024/02/20 07:07:14;;;;;;;0.50;0.50;;;;;;;2.69;100.00;100506.66;5068656;28;20090;-67
2024/02/20 07:09:40;;;;;;;0.50;0.50;;;;;;;2.78;100.00;100512.88;5068636;28;20021;-66
2024/02/20 07:12:06;;;;;;;0.43;0.43;;;;;;;2.81;100.00;100512.94;5068571;28;20020;-67
2024/02/20 07:14:32;;;;;;;0.50;0.50;;;;;;;2.85;100.00;100504.50;5050366;28;20029;-67
2024/02/20 07:16:58;;;;;;;0.40;0.40;;;;;;;2.89;100.00;100519.09;5068431;28;20025;-67
2024/02/20 07:19:25;;;;;;;0.40;0.40;;;;;;;2.89;100.00;100529.38;5068323;28;20080;-68
2024/02/20 07:21:50;;;;;;;2.15;2.05;;;;;;;2.88;100.00;100531.91;5050466;28;20032;-68
2024/02/20 07:24:16;;;;;;;0.50;0.50;;;;;;;2.75;100.00;100521.34;5050294;28;20025;-67
2024/02/20 07:26:41;;;;;;;0.50;0.50;;;;;;;2.91;100.00;100534.53;5068276;28;20404;-69
2024/02/20 07:29:06;;;;;;;0.50;0.50;;;;;;;2.87;100.00;100540.44;5050519;28;20052;-69
2024/02/20 07:31:32;;;;;;;0.50;0.50;;;;;;;2.87;100.00;100525.03;5068105;28;20017;-68
2024/02/20 07:33:59;;;;;;;0.55;0.55;;;;;;;2.93;100.00;100528.63;5050169;28;20492;-68
2024/02/20 07:36:25;;;;;;;0.50;0.50;;;;;;;2.93;100.00;100536.31;5068286;28;20477;-69
2024/02/20 07:38:50;;;;;;;0.50;0.50;;;;;;;2.94;100.00;100538.06;5068187;28;20025;-68
2024/02/20 07:41:15;;;;;;;0.50;0.50;;;;;;;2.99;100.00;100545.00;5068060;28;20025;-68
2024/02/20 07:43:41;;;;;;;1.05;1.05;;;;;;;3.03;100.00;100550.25;5068232;28;20028;-68
2024/02/20 07:46:07;;;;;;;0.40;0.40;;;;;;;3.00;100.00;100544.16;5068062;28;20029;-69
2024/02/20 07:48:32;;;;;;;29.02;6.95;;;;;;;3.02;100.00;100560.47;5067908;28;20203;-68
2024/02/20 07:50:57;;;;;;;0.50;0.50;;;;;;;2.95;100.00;100554.31;5067864;28;20104;-69
2024/02/20 07:53:23;;;;;;;0.40;0.40;;;;;;;2.99;100.00;100555.28;5049871;28;20075;-69
2024/02/20 07:55:48;;;;;;;0.40;0.40;;;;;;;3.06;100.00;100568.28;5067275;28;20135;-68
2024/02/20 07:58:13;;;;;;;0.50;0.50;;;;;;;2.97;100.00;100553.53;5067520;28;20049;-71
2024/02/20 08:00:39;;;;;;;0.60;0.60;;;;;;;2.98;100.00;100559.53;5049693;28;20029;-69
2024/02/20 08:03:04;;;;;;;0.40;0.40;;;;;;;3.06;100.00;100562.28;5067509;28;20128;-68
2024/02/20 08:05:30;;;;;;;0.40;0.40;;;;;;;3.07;100.00;100546.94;5067636;28;20036;-69
2024/02/20 08:07:55;;;;;;;0.40;0.40;;;;;;;3.11;100.00;100555.56;5067721;28;20086;-69
2024/02/20 08:10:20;;;;;;;0.50;0.50;;;;;;;3.09;100.00;100546.97;5067716;28;20532;-68
2024/02/20 08:12:46;;;;;;;0.50;0.50;;;;;;;3.18;100.00;100536.91;5067569;28;20028;-68
2024/02/20 08:15:12;;;;;;;0.47;0.47;;;;;;;3.24;100.00;100531.09;5049352;28;20454;-68
2024/02/20 08:17:40;;;;;;;0.50;0.50;;;;;;;3.32;100.00;100526.13;5067231;28;20055;-68
2024/02/20 08:20:06;;;;;;;0.40;0.40;;;;;;;3.31;100.00;100532.94;5067225;28;20082;-69
2024/02/20 08:22:31;;;;;;;0.88;0.88;;;;;;;3.30;100.00;100535.47;5049307;28;20020;-70
2024/02/20 08:24:56;;;;;;;0.50;0.50;;;;;;;3.42;100.00;100548.59;5067170;28;20027;-68
2024/02/20 08:27:22;;;;;;;0.40;0.40;;;;;;;3.44;100.00;100549.50;5067193;28;20102;-69
2024/02/20 08:29:48;;;;;;;0.50;0.50;;;;;;;3.51;100.00;100550.53;5067419;28;20028;-68
2024/02/20 08:32:14;;;;;;;0.68;0.68;;;;;;;3.52;100.00;100554.81;5066841;28;20021;-68
2024/02/20 08:34:39;;;;;;;0.40;0.40;;;;;;;3.58;100.00;100556.66;5066972;28;20071;-68
2024/02/20 08:37:04;;;;;;;0.50;0.50;;;;;;;3.69;100.00;100560.31;5067088;28;20021;-70
2024/02/20 08:39:30;;;;;;;0.50;0.50;;;;;;;3.75;100.00;100569.88;5066893;28;20017;-68
2024/02/20 08:41:56;;;;;;;0.40;0.40;;;;;;;3.72;100.00;100567.25;5067049;28;20021;-69
2024/02/20 08:44:23;;;;;;;0.40;0.40;;;;;;;3.69;100.00;100562.91;5054499;23;20017;-61
2024/02/20 08:46:49;;;;;;;0.50;0.50;;;;;;;3.70;100.00;100566.34;5039116;23;20042;-68
2024/02/20 08:49:15;;;;;;;0.40;0.40;;;;;;;3.64;100.00;100566.22;5036211;23;20054;-62
2024/02/20 08:51:40;;;;;;;0.40;0.40;;;;;;;3.61;100.00;100576.41;5059687;23;20056;-67
2024/02/20 08:54:05;;;;;;;0.47;0.47;;;;;;;3.61;100.00;100573.84;5045048;28;20075;-68
2024/02/20 08:56:31;;;;;;;0.50;0.50;;;;;;;3.59;100.00;100568.66;5045206;28;20022;-67
2024/02/20 08:58:56;;;;;;;0.40;0.40;;;;;;;3.55;100.00;100566.84;5045390;28;20029;-67
2024/02/20 09:01:24;;;;;;;0.40;0.40;;;;;;;3.60;100.00;100572.97;5046159;28;20029;-66
2024/02/20 09:03:51;;;;;;;0.50;0.50;;;;;;;3.60;100.00;100578.09;5046307;28;20079;-68
2024/02/20 09:06:17;;;;;;;0.50;0.50;;;;;;;3.60;100.00;100567.81;5046686;28;20025;-68
2024/02/20 09:08:42;;;;;;;0.50;0.50;;;;;;;3.55;100.00;100559.13;5045529;28;20017;-68
2024/02/20 09:11:08;;;;;;;0.50;0.50;;;;;;;3.62;100.00;100576.44;5046239;28;20017;-67
2024/02/20 09:13:35;;;;;;;0.50;0.50;;;;;;;3.61;100.00;100571.28;5046021;28;20052;-67
2024/02/20 09:16:00;;;;;;;0.50;0.50;;;;;;;3.61;100.00;100572.13;5044567;28;20052;-66
2024/02/20 09:18:27;;;;;;;0.50;0.50;;;;;;;3.55;100.00;100571.97;5052550;23;20057;-62
2024/02/20 09:20:53;;;;;;;0.50;0.50;;;;;;;3.46;100.00;100577.78;5045880;28;20052;-62
2024/02/20 09:23:18;;;;;;;1.25;1.25;;;;;;;3.49;100.00;100587.25;5050389;23;20517;-71
2024/02/20 09:25:43;;;;;;;0.47;0.47;;;;;;;3.59;100.00;100578.94;5044194;28;20056;-71
2024/02/20 09:28:09;;;;;;;0.50;0.50;;;;;;;3.64;100.00;100582.50;5045706;28;20060;-70
2024/02/20 09:30:36;;;;;;;0.50;0.50;;;;;;;3.69;100.00;100585.16;5044180;28;20021;-70
2024/02/20 09:33:02;;;;;;;0.50;0.50;;;;;;;3.76;100.00;100591.28;5045617;28;20021;-70
2024/02/20 09:35:27;;;;;;;0.50;0.50;;;;;;;3.75;100.00;100590.44;5045627;28;20100;-69
2024/02/20 09:37:52;;;;;;;0.50;0.50;;;;;;;3.82;100.00;100588.84;5044059;28;20048;-68
2024/02/20 09:40:19;;;;;;;0.50;0.50;;;;;;;3.83;100.00;100586.31;5045579;28;20032;-69
2024/02/20 09:42:50;;;;;;;0.50;0.50;;;;;;;3.82;100.00;100581.13;5045497;28;20029;-69
2024/02/20 09:45:19;;;;;;;0.50;0.50;;;;;;;3.86;100.00;100590.66;5045227;28;20022;-69
2024/02/20 09:47:49;;;;;;;0.40;0.40;;;;;;;4.00;100.00;100595.22;5045249;28;20032;-69
2024/02/20 09:50:17;;;;;;;0.43;0.43;;;;;;;4.06;100.00;100601.38;5096891;23;20053;-63
2024/02/20 09:52:55;;;;;;;0.50;0.50;;;;;;;4.05;100.00;100588.50;5065399;28;20085;-64
2024/02/20 09:55:23;;;;;;;0.93;0.93;;;;;;;4.08;100.00;100583.41;5065316;28;20032;-64
2024/02/20 09:57:50;;;;;;;0.50;0.50;;;;;;;4.08;100.00;100586.88;5059442;23;20104;-64
2024/02/20 10:00:17;;;;;;;0.50;0.50;;;;;;;4.10;100.00;100599.75;5047354;28;20025;-65
2024/02/20 10:02:44;;;;;;;0.50;0.50;;;;;;;4.03;100.00;100596.16;5064890;28;20047;-65
2024/02/20 10:05:16;;;;;;;0.47;0.47;;;;;;;4.01;100.00;100589.28;5047364;28;20028;-65
2024/02/20 10:07:42;;;;;;;0.50;0.50;;;;;;;4.09;100.00;100598.88;5065132;28;20080;-64
2024/02/20 10:10:09;;;;;;;0.40;0.40;;;;;;;4.10;100.00;100612.59;5047098;28;20028;-64
2024/02/20 10:12:39;;;;;;;0.50;0.50;;;;;;;4.13;100.00;100606.63;5065121;28;20028;-65
2024/02/20 10:15:08;;;;;;;0.40;0.40;;;;;;;4.09;100.00;100603.13;5065012;28;20025;-65
2024/02/20 10:17:35;;;;;;;0.50;0.50;;;;;;;4.10;100.00;100602.31;5047051;28;20096;-65
2024/02/20 10:20:11;;;;;;;0.50;0.50;;;;;;;4.14;100.00;100604.09;5064976;28;20127;-65
2024/02/20 10:22:40;;;;;;;0.60;0.60;;;;;;;4.21;100.00;100599.97;5064954;28;20029;-64
2024/02/20 10:25:12;;;;;;;0.50;0.50;;;;;;;4.32;100.00;100597.63;5064829;28;20102;-65
2024/02/20 10:27:38;;;;;;;0.50;0.50;;;;;;;4.33;100.00;100599.34;5047354;28;20025;-65
2024/02/20 10:30:05;;;;;;;0.47;0.47;;;;;;;4.44;100.00;100597.00;5064911;28;20025;-65
2024/02/20 10:32:34;;;;;;;0.50;0.50;;;;;;;4.50;100.00;100585.97;5064695;28;20025;-65
2024/02/20 10:35:09;;;;;;;0.50;0.50;;;;;;;4.49;100.00;100608.22;5064831;28;20032;-65
2024/02/20 10:37:35;;;;;;;0.50;0.50;;;;;;;4.54;100.00;100614.34;5064980;28;20025;-65
2024/02/20 10:40:06;;;;;;;0.50;0.50;;;;;;;4.47;100.00;100604.78;5064544;28;20071;-64
2024/02/20 10:42:37;;;;;;;0.60;0.60;;;;;;;4.44;100.00;100609.88;5065031;28;20025;-64
2024/02/20 10:45:09;;;;;;;0.50;0.50;;;;;;;4.44;100.00;100612.44;5064734;28;20055;-64
2024/02/20 10:47:46;;;;;;;0.50;0.50;;;;;;;4.53;100.00;100601.44;5064805;28;20032;-66
2024/02/20 10:50:14;;;;;;;0.43;0.43;;;;;;;4.69;100.00;100606.06;5064702;28;20017;-65
2024/02/20 10:52:40;;;;;;;1.38;1.38;;;;;;;4.83;100.00;100601.19;5064612;28;20032;-65
2024/02/20 10:55:08;;;;;;;0.50;0.50;;;;;;;4.91;100.00;100601.31;5064722;28;20090;-65
2024/02/20 10:57:35;;;;;;;0.40;0.40;;;;;;;5.01;100.00;100593.75;5064505;28;20024;-65
2024/02/20 11:00:09;;;;;;;0.40;0.40;;;;;;;5.16;100.00;100600.88;5064662;28;20412;-65
2024/02/20 11:02:43;;;;;;;0.47;0.47;;;;;;;5.20;100.00;100598.38;5046690;28;20048;-65
2024/02/20 11:05:13;;;;;;;0.40;0.40;;;;;;;5.25;100.00;100595.88;5046544;28;20021;-65
2024/02/20 11:07:39;;;;;;;0.50;0.50;;;;;;;5.22;100.00;100582.97;5064745;28;20056;-65
2024/02/20 11:10:08;;;;;;;0.40;0.40;;;;;;;5.37;100.00;100594.38;5064782;28;20024;-64
2024/02/20 11:12:34;;;;;;;0.40;0.40;;;;;;;5.30;100.00;100595.97;5064673;28;20044;-65
2024/02/20 11:15:05;;;;;;;0.50;0.50;;;;;;;5.51;100.00;100599.72;5064534;28;20025;-65
2024/02/20 11:17:34;;;;;;;0.50;0.50;;;;;;;5.53;100.00;100601.47;5064501;28;20035;-64
2024/02/20 11:20:14;;;;;;;0.43;0.43;;;;;;;5.65;100.00;100605.97;5064438;28;20037;-65